createdAt,value
2018-03-16T00:02:18.932Z,88.50
2018-03-16T00:04:46.581Z,88.30
2018-03-16T00:07:14.243Z,88.30
2018-03-16T00:09:41.861Z,88.40
2018-03-16T00:12:09.512Z,88.50
2018-03-16T00:14:37.156Z,88.50
2018-03-16T00:17:04.860Z,88.60
2018-03-16T00:19:32.603Z,88.60
2018-03-16T00:22:00.240Z,88.60
2018-03-16T00:24:27.900Z,88.50
2018-03-16T00:26:55.559Z,88.40
2018-03-16T00:29:23.168Z,88.30
2018-03-16T00:31:50.796Z,88.30
2018-03-16T00:34:18.427Z,88.70
2018-03-16T00:36:46.087Z,88.50
2018-03-16T00:39:13.752Z,88.40
2018-03-16T00:41:41.365Z,88.40
2018-03-16T00:44:08.970Z,88.70
2018-03-16T00:46:36.620Z,88.90
2018-03-16T00:49:04.259Z,88.70
2018-03-16T00:51:31.917Z,88.70
2018-03-16T00:53:59.543Z,88.80
2018-03-16T00:56:27.173Z,88.90
2018-03-16T00:58:54.756Z,88.90
2018-03-16T01:01:22.402Z,89.30
2018-03-16T01:03:50.004Z,89.60
2018-03-16T01:06:17.611Z,89.20
2018-03-16T01:08:45.263Z,89.20
2018-03-16T01:11:12.899Z,89.20
2018-03-16T01:13:40.571Z,89.60
2018-03-16T01:16:08.169Z,89.70
2018-03-16T01:18:35.824Z,89.70
2018-03-16T01:21:03.462Z,89.80
2018-03-16T01:23:31.123Z,90.20
2018-03-16T01:25:58.754Z,90.10
2018-03-16T01:28:26.404Z,90.10
2018-03-16T01:30:54.021Z,90.10
2018-03-16T01:33:22.074Z,90.20
2018-03-16T01:35:49.660Z,90.20
2018-03-16T01:38:17.708Z,90.30
2018-03-16T01:40:45.296Z,90.30
2018-03-16T01:43:12.915Z,90.30
2018-03-16T01:45:40.566Z,90.30
2018-03-16T01:48:08.610Z,90.40
2018-03-16T01:50:36.236Z,90.30
2018-03-16T01:53:16.101Z,90.20
2018-03-16T01:55:43.765Z,90.20
2018-03-16T01:58:11.388Z,90.30
2018-03-16T02:00:39.023Z,90.40
2018-03-16T02:03:06.666Z,90.40
2018-03-16T02:05:34.334Z,90.50
2018-03-16T02:08:01.993Z,90.70
2018-03-16T02:10:29.583Z,90.70
2018-03-16T02:12:57.240Z,90.70
2018-03-16T02:15:24.864Z,90.70
2018-03-16T02:17:52.508Z,90.60
2018-03-16T02:20:20.134Z,90.50
2018-03-16T02:22:48.159Z,90.40
2018-03-16T02:25:15.757Z,90.40
2018-03-16T02:27:43.397Z,90.40
2018-03-16T02:30:11.036Z,90.30
2018-03-16T02:32:38.664Z,90.20
2018-03-16T02:35:06.284Z,90.10
2018-03-16T02:37:33.939Z,90.10
2018-03-16T02:40:01.560Z,90.20
2018-03-16T02:42:29.184Z,90.20
2018-03-16T02:44:56.847Z,90.10
2018-03-16T02:47:24.504Z,90.10
2018-03-16T02:49:52.169Z,89.80
2018-03-16T02:52:19.790Z,89.90
2018-03-16T02:54:47.478Z,90.00
2018-03-16T02:57:15.133Z,90.10
2018-03-16T02:59:43.193Z,90.10
2018-03-16T03:02:10.813Z,90.10
2018-03-16T03:04:38.452Z,90.20
2018-03-16T03:07:06.054Z,90.30
2018-03-16T03:09:33.683Z,90.30
2018-03-16T03:12:01.267Z,90.40
2018-03-16T03:14:28.935Z,90.50
2018-03-16T03:16:56.539Z,90.60
2018-03-16T03:19:24.552Z,90.70
2018-03-16T03:21:52.156Z,90.70
2018-03-16T03:24:19.795Z,90.70
2018-03-16T03:26:47.399Z,90.70
2018-03-16T03:29:15.049Z,90.70
2018-03-16T03:31:42.658Z,90.60
2018-03-16T03:34:10.291Z,90.60
2018-03-16T03:36:37.912Z,90.60
2018-03-16T03:39:05.968Z,90.30
2018-03-16T03:41:33.581Z,90.30
2018-03-16T03:44:01.237Z,90.20
2018-03-16T03:46:28.866Z,90.50
2018-03-16T03:48:56.908Z,90.80
2018-03-16T03:51:24.547Z,90.80
2018-03-16T03:53:52.149Z,90.80
2018-03-16T03:56:19.785Z,90.80
2018-03-16T03:58:47.428Z,90.90
2018-03-16T04:01:15.063Z,90.90
2018-03-16T04:03:42.656Z,90.80
2018-03-16T04:06:10.277Z,90.80
2018-03-16T04:08:37.908Z,90.80
2018-03-16T04:11:05.525Z,90.70
2018-03-16T04:13:33.108Z,90.60
2018-03-16T04:16:00.758Z,90.50
2018-03-16T04:18:28.365Z,90.50
2018-03-16T04:20:55.989Z,90.50
2018-03-16T04:23:23.585Z,90.40
2018-03-16T04:25:51.213Z,90.40
2018-03-16T04:28:18.837Z,90.30
2018-03-16T04:30:46.480Z,90.30
2018-03-16T04:33:14.099Z,90.30
2018-03-16T04:35:42.150Z,90.50
2018-03-16T04:38:09.733Z,90.50
2018-03-16T04:40:37.360Z,90.40
2018-03-16T04:43:04.977Z,90.30
2018-03-16T04:45:32.608Z,90.30
2018-03-16T04:48:00.256Z,90.20
2018-03-16T04:50:27.906Z,90.30
2018-03-16T04:52:55.546Z,90.50
2018-03-16T04:55:23.153Z,90.70
2018-03-16T04:57:50.776Z,90.70
2018-03-16T05:00:18.358Z,90.50
2018-03-16T05:02:45.985Z,90.50
2018-03-16T05:05:13.573Z,90.50
2018-03-16T05:07:41.203Z,90.60
2018-03-16T05:10:08.812Z,90.60
2018-03-16T05:12:36.441Z,90.40
2018-03-16T05:15:04.084Z,90.30
2018-03-16T05:17:31.707Z,90.40
2018-03-16T05:20:04.315Z,90.50
2018-03-16T05:22:31.944Z,90.50
2018-03-16T05:24:59.556Z,90.50
2018-03-16T05:27:27.220Z,90.50
2018-03-16T05:29:54.811Z,90.60
2018-03-16T05:32:22.432Z,90.60
2018-03-16T05:34:50.154Z,90.60
2018-03-16T05:37:17.998Z,90.70
2018-03-16T05:39:45.621Z,90.80
2018-03-16T05:42:13.244Z,91.00
2018-03-16T05:44:40.888Z,91.10
2018-03-16T05:47:08.501Z,91.10
2018-03-16T05:49:36.134Z,91.20
2018-03-16T05:52:03.753Z,91.20
2018-03-16T05:54:31.384Z,91.10
2018-03-16T05:56:59.045Z,91.10
2018-03-16T05:59:26.644Z,91.10
2018-03-16T06:01:54.264Z,90.90
2018-03-16T06:04:21.916Z,90.70
2018-03-16T06:06:49.536Z,90.80
2018-03-16T06:09:17.264Z,90.80
2018-03-16T06:11:44.872Z,90.80
2018-03-16T06:14:12.504Z,90.70
2018-03-16T06:16:40.116Z,90.30
2018-03-16T06:19:07.911Z,90.30
2018-03-16T06:21:35.518Z,90.40
2018-03-16T06:24:03.162Z,90.80
2018-03-16T06:26:30.965Z,90.30
2018-03-16T06:28:58.572Z,90.10
2018-03-16T06:31:26.184Z,90.10
2018-03-16T06:33:53.829Z,90.10
2018-03-16T06:36:21.485Z,90.10
2018-03-16T06:38:49.104Z,90.10
2018-03-16T06:41:16.728Z,90.10
2018-03-16T06:43:44.389Z,90.10
2018-03-16T06:46:12.031Z,90.10
2018-03-16T06:48:39.646Z,90.60
2018-03-16T06:51:07.380Z,90.10
2018-03-16T06:53:35.420Z,89.30
2018-03-16T06:56:03.024Z,89.30
2018-03-16T06:58:36.776Z,89.10
2018-03-16T07:01:04.368Z,89.20
2018-03-16T07:03:32.017Z,89.10
2018-03-16T07:05:59.643Z,88.90
2018-03-16T07:08:27.305Z,88.90
2018-03-16T07:10:59.699Z,88.80
2018-03-16T07:13:27.329Z,88.60
2018-03-16T07:15:54.952Z,88.70
2018-03-16T07:18:22.582Z,88.70
2018-03-16T07:20:50.232Z,87.80
2018-03-16T07:23:20.360Z,87.40
2018-03-16T07:25:48.182Z,87.40
2018-03-16T07:28:15.842Z,87.70
2018-03-16T07:30:43.493Z,87.40
2018-03-16T07:33:11.107Z,87.60
2018-03-16T07:35:38.742Z,87.80
2018-03-16T07:38:06.332Z,87.80
2018-03-16T07:40:33.985Z,88.10
2018-03-16T07:43:01.620Z,88.30
2018-03-16T07:45:34.816Z,88.10
2018-03-16T07:48:02.444Z,87.70
2018-03-16T07:50:30.080Z,87.90
2018-03-16T07:52:58.097Z,87.60
2018-03-16T07:55:25.708Z,87.60
2018-03-16T07:57:53.329Z,87.10
2018-03-16T08:00:20.958Z,86.70
2018-03-16T08:02:48.569Z,86.40
2018-03-16T08:05:16.182Z,86.50
2018-03-16T08:07:43.793Z,86.80
2018-03-16T08:10:11.421Z,86.00
2018-03-16T08:12:39.008Z,85.80
2018-03-16T08:15:06.695Z,85.30
2018-03-16T08:17:34.327Z,84.20
2018-03-16T08:20:01.993Z,84.50
2018-03-16T08:22:29.727Z,84.10
2018-03-16T08:24:57.349Z,84.20
2018-03-16T08:27:25.154Z,83.60
2018-03-16T08:30:04.499Z,83.70
2018-03-16T08:32:41.877Z,83.10
2018-03-16T08:35:09.507Z,82.50
2018-03-16T08:37:37.121Z,82.80
2018-03-16T08:40:05.166Z,82.10
2018-03-16T08:42:32.779Z,82.10
2018-03-16T08:45:00.431Z,82.30
2018-03-16T08:47:32.484Z,81.90
2018-03-16T08:50:02.666Z,81.00
2018-03-16T08:52:30.318Z,81.00
2018-03-16T08:54:57.966Z,80.50
2018-03-16T08:57:25.625Z,80.50
2018-03-16T08:59:53.249Z,80.90
2018-03-16T09:02:20.862Z,81.00
2018-03-16T09:07:22.417Z,80.70
2018-03-16T09:09:50.034Z,80.30
2018-03-16T09:12:17.685Z,79.90
2018-03-16T09:14:45.369Z,80.20
2018-03-16T09:17:13.013Z,79.60
2018-03-16T09:19:40.648Z,80.20
2018-03-16T09:22:08.309Z,79.30
2018-03-16T09:24:35.950Z,79.70
2018-03-16T09:27:03.637Z,79.40
2018-03-16T09:29:31.309Z,79.10
2018-03-16T09:31:58.946Z,79.50
2018-03-16T09:34:26.590Z,79.60
2018-03-16T09:36:54.248Z,79.10
2018-03-16T09:39:21.888Z,79.20
2018-03-16T09:41:49.553Z,79.50
2018-03-16T09:44:17.186Z,79.20
2018-03-16T09:46:44.829Z,78.70
2018-03-16T09:49:12.428Z,79.20
2018-03-16T09:51:40.066Z,79.10
2018-03-16T09:54:07.691Z,79.20
2018-03-16T09:56:35.338Z,79.20
2018-03-16T09:59:02.956Z,78.30
2018-03-16T10:01:30.607Z,78.40
2018-03-16T10:03:58.616Z,77.40
2018-03-16T10:06:26.274Z,77.40
2018-03-16T10:08:53.895Z,77.80
2018-03-16T10:11:21.924Z,77.60
2018-03-16T10:13:49.548Z,77.60
2018-03-16T10:16:17.209Z,77.20
2018-03-16T10:18:44.853Z,77.10
2018-03-16T10:21:12.468Z,77.10
2018-03-16T10:23:40.127Z,77.20
2018-03-16T10:26:07.785Z,77.70
2018-03-16T10:28:35.420Z,78.00
2018-03-16T10:31:03.005Z,78.30
2018-03-16T10:33:30.642Z,78.30
2018-03-16T10:35:58.273Z,78.80
2018-03-16T10:38:25.925Z,77.70
2018-03-16T10:40:53.564Z,77.90
2018-03-16T10:43:39.151Z,77.60
2018-03-16T10:46:06.835Z,77.80
2018-03-16T10:48:34.497Z,78.00
2018-03-16T10:51:07.329Z,78.10
2018-03-16T10:53:35.033Z,78.30
2018-03-16T10:56:02.644Z,79.30
2018-03-16T10:58:31.195Z,78.50
2018-03-16T11:00:59.655Z,78.60
2018-03-16T11:03:32.974Z,78.10
2018-03-16T11:06:01.179Z,78.40
2018-03-16T11:08:33.405Z,78.80
2018-03-16T11:11:01.877Z,78.90
2018-03-16T11:13:29.495Z,79.50
2018-03-16T11:15:57.123Z,79.40
2018-03-16T11:18:24.797Z,78.50
2018-03-16T11:20:52.426Z,78.70
2018-03-16T11:23:20.069Z,78.40
2018-03-16T11:25:47.745Z,77.80
2018-03-16T11:28:15.394Z,78.10
2018-03-16T11:30:42.991Z,78.30
2018-03-16T11:33:10.641Z,77.10
2018-03-16T11:35:38.294Z,77.00
2018-03-16T11:38:05.955Z,76.70
2018-03-16T11:40:33.602Z,76.50
2018-03-16T11:43:01.252Z,76.20
2018-03-16T11:45:28.892Z,75.80
2018-03-16T11:48:03.868Z,75.70
2018-03-16T11:50:31.540Z,75.60
2018-03-16T11:52:59.192Z,75.00
2018-03-16T11:55:26.903Z,75.20
2018-03-16T11:57:54.748Z,75.00
2018-03-16T12:00:22.410Z,75.90
2018-03-16T12:02:50.240Z,75.20
2018-03-16T12:05:17.900Z,75.50
2018-03-16T12:07:45.589Z,75.50
2018-03-16T12:10:13.249Z,75.10
2018-03-16T12:12:40.872Z,75.10
2018-03-16T12:15:08.516Z,75.30
2018-03-16T12:17:36.184Z,75.20
2018-03-16T12:20:03.813Z,74.00
2018-03-16T12:22:32.083Z,73.80
2018-03-16T12:24:59.749Z,73.80
2018-03-16T12:27:27.415Z,73.40
2018-03-16T12:29:55.038Z,73.10
2018-03-16T12:32:22.673Z,73.90
2018-03-16T12:34:50.309Z,73.80
2018-03-16T12:37:17.965Z,73.10
2018-03-16T12:39:45.629Z,74.00
2018-03-16T12:42:13.252Z,72.50
2018-03-16T12:44:40.911Z,72.70
2018-03-16T12:47:17.045Z,71.00
2018-03-16T12:49:44.711Z,71.10
2018-03-16T12:52:12.364Z,70.60
2018-03-16T12:54:40.222Z,70.70
2018-03-16T12:57:07.891Z,70.60
2018-03-16T12:59:35.524Z,70.60
2018-03-16T13:02:03.164Z,69.80
2018-03-16T13:04:30.796Z,69.90
2018-03-16T13:06:58.463Z,70.70
2018-03-16T13:09:26.410Z,71.00
2018-03-16T13:11:54.083Z,71.50
2018-03-16T13:14:21.692Z,71.40
2018-03-16T13:16:49.313Z,71.00
2018-03-16T13:19:16.966Z,70.30
2018-03-16T13:21:44.656Z,69.50
2018-03-16T13:24:12.241Z,69.20
2018-03-16T13:26:44.133Z,68.80
2018-03-16T13:29:11.874Z,69.60
2018-03-16T13:31:39.610Z,68.80
2018-03-16T13:34:07.225Z,67.10
2018-03-16T13:36:34.844Z,67.70
2018-03-16T13:39:02.477Z,66.20
2018-03-16T13:41:30.139Z,66.60
2018-03-16T13:43:57.757Z,67.20
2018-03-16T13:46:25.395Z,67.60
2018-03-16T13:48:53.025Z,67.40
2018-03-16T13:51:20.707Z,68.10
2018-03-16T13:53:49.353Z,67.90
2018-03-16T13:56:17.409Z,64.90
2018-03-16T13:58:45.068Z,64.90
2018-03-16T14:01:12.712Z,64.40
2018-03-16T14:03:40.310Z,64.50
2018-03-16T14:06:07.957Z,64.20
2018-03-16T14:08:35.618Z,63.20
2018-03-16T14:11:03.656Z,63.50
2018-03-16T14:13:31.729Z,63.50
2018-03-16T14:15:59.503Z,62.00
2018-03-16T14:18:27.179Z,61.30
2018-03-16T14:20:54.807Z,61.60
2018-03-16T14:23:22.451Z,61.40
2018-03-16T14:25:50.057Z,60.60
2018-03-16T14:28:18.125Z,61.00
2018-03-16T14:30:49.597Z,60.70
2018-03-16T14:33:17.264Z,60.70
2018-03-16T14:35:44.878Z,61.10
2018-03-16T14:38:12.517Z,62.80
2018-03-16T14:40:40.137Z,63.80
2018-03-16T14:43:07.761Z,66.40
2018-03-16T14:45:35.391Z,66.40
2018-03-16T14:48:03.073Z,66.70
2018-03-16T14:50:30.714Z,67.00
2018-03-16T14:52:59.472Z,67.10
2018-03-16T14:55:27.129Z,66.60
2018-03-16T14:57:55.027Z,66.30
2018-03-16T15:00:22.662Z,66.00
2018-03-16T15:02:50.324Z,65.60
2018-03-16T15:05:17.945Z,65.70
2018-03-16T15:07:45.586Z,65.60
2018-03-16T15:10:13.229Z,65.80
2018-03-16T15:12:40.887Z,65.70
2018-03-16T15:15:08.477Z,63.80
2018-03-16T15:17:36.141Z,60.90
2018-03-16T15:20:04.929Z,60.90
2018-03-16T15:22:32.586Z,59.70
2018-03-16T15:25:00.166Z,58.70
2018-03-16T15:27:28.157Z,56.30
2018-03-16T15:29:55.785Z,56.30
2018-03-16T15:32:23.746Z,55.60
2018-03-16T15:34:51.336Z,55.60
2018-03-16T15:37:18.934Z,55.60
2018-03-16T15:39:46.577Z,56.40
2018-03-16T15:42:14.186Z,55.40
2018-03-16T15:44:42.281Z,54.50
2018-03-16T15:47:09.868Z,54.50
2018-03-16T15:49:37.459Z,55.10
2018-03-16T15:52:05.069Z,54.50
2018-03-16T15:54:32.668Z,55.70
2018-03-16T15:57:00.273Z,56.40
2018-03-16T15:59:27.869Z,55.20
2018-03-16T16:01:55.450Z,56.70
2018-03-16T16:04:23.115Z,57.70
2018-03-16T16:06:50.699Z,56.60
2018-03-16T16:09:18.299Z,58.00
2018-03-16T16:11:45.880Z,59.30
2018-03-16T16:14:13.510Z,60.90
2018-03-16T16:16:41.102Z,62.60
2018-03-16T16:19:08.683Z,63.40
2018-03-16T16:21:36.239Z,63.70
2018-03-16T16:24:04.024Z,63.20
2018-03-16T16:26:31.721Z,61.40
2018-03-16T16:28:59.308Z,58.10
2018-03-16T16:31:26.950Z,56.20
2018-03-16T16:33:54.554Z,57.00
2018-03-16T16:36:22.147Z,58.50
2018-03-16T16:38:49.694Z,60.50
2018-03-16T16:41:17.270Z,61.90
2018-03-16T16:43:44.859Z,62.90
2018-03-16T16:46:12.447Z,64.00
2018-03-16T16:48:40.001Z,64.30
2018-03-16T16:51:07.623Z,65.10
2018-03-16T16:53:35.207Z,65.80
2018-03-16T16:56:02.856Z,66.50
2018-03-16T16:58:30.427Z,66.90
2018-03-16T17:00:58.420Z,67.90
2018-03-16T17:03:26.079Z,67.90
2018-03-16T17:05:53.741Z,68.50
2018-03-16T17:08:21.323Z,68.90
2018-03-16T17:10:48.919Z,68.90
2018-03-16T17:13:16.467Z,69.20
2018-03-16T17:15:44.149Z,69.50
2018-03-16T17:18:11.755Z,69.80
2018-03-16T17:20:39.362Z,70.00
2018-03-16T17:23:07.171Z,70.20
2018-03-16T17:25:34.769Z,70.20
2018-03-16T17:28:02.380Z,70.50
2018-03-16T17:30:29.948Z,70.60
2018-03-16T17:32:57.519Z,70.60
2018-03-16T17:35:25.093Z,70.80
2018-03-16T17:37:52.664Z,70.80
2018-03-16T17:40:20.289Z,70.90
2018-03-16T17:42:47.882Z,70.80
2018-03-16T17:45:15.486Z,71.00
2018-03-16T17:47:43.060Z,71.00
2018-03-16T17:50:10.614Z,70.90
2018-03-16T17:52:38.459Z,71.10
2018-03-16T17:55:06.139Z,71.20
2018-03-16T17:57:33.735Z,71.30
2018-03-16T18:00:01.307Z,71.40
2018-03-16T18:02:28.891Z,71.50
2018-03-16T18:04:56.747Z,71.50
2018-03-16T18:07:25.727Z,71.60
2018-03-16T18:09:53.323Z,71.60
2018-03-16T18:12:20.938Z,71.70
2018-03-16T18:14:48.551Z,72.20
2018-03-16T18:17:16.149Z,72.30
2018-03-16T18:19:44.328Z,72.70
2018-03-16T18:22:11.944Z,72.90
2018-03-16T18:24:39.502Z,73.00
2018-03-16T18:27:08.644Z,73.80
2018-03-16T18:29:36.369Z,74.00
2018-03-16T18:32:03.969Z,74.20
2018-03-16T18:34:31.553Z,74.30
2018-03-16T18:36:59.212Z,74.50
2018-03-16T18:39:26.791Z,74.90
2018-03-16T18:41:54.370Z,74.80
2018-03-16T18:44:21.943Z,74.90
2018-03-16T18:46:49.495Z,74.90
2018-03-16T18:49:17.091Z,75.20
2018-03-16T18:51:44.715Z,75.60
2018-03-16T18:54:12.336Z,75.80
2018-03-16T18:56:39.939Z,76.50
2018-03-16T18:59:07.535Z,76.80
2018-03-16T19:01:35.581Z,77.80
2018-03-16T19:04:03.171Z,77.80
2018-03-16T19:06:30.832Z,77.90
2018-03-16T19:08:58.867Z,78.00
2018-03-16T19:11:26.447Z,78.00
2018-03-16T19:13:54.034Z,78.30
2018-03-16T19:16:21.631Z,78.50
2018-03-16T19:18:49.275Z,78.60
2018-03-16T19:21:16.867Z,78.60
2018-03-16T19:23:44.502Z,78.70
2018-03-16T19:26:12.075Z,78.50
2018-03-16T19:28:39.720Z,78.60
2018-03-16T19:31:07.295Z,78.70
2018-03-16T19:33:34.915Z,78.70
2018-03-16T19:36:02.527Z,78.70
2018-03-16T19:38:30.167Z,78.70
2018-03-16T19:40:57.844Z,78.70
2018-03-16T19:43:25.477Z,79.20
2018-03-16T19:45:53.011Z,79.50
2018-03-16T19:48:20.588Z,80.10
2018-03-16T19:50:48.163Z,80.20
2018-03-16T19:53:22.278Z,80.20
2018-03-16T19:55:49.901Z,80.60
2018-03-16T19:58:17.480Z,80.60
2018-03-16T20:00:45.067Z,81.00
2018-03-16T20:03:12.619Z,81.00
2018-03-16T20:05:40.197Z,81.10
2018-03-16T20:08:07.747Z,81.40
2018-03-16T20:10:35.335Z,81.30
2018-03-16T20:13:02.907Z,81.60
2018-03-16T20:15:30.525Z,81.60
2018-03-16T20:17:58.111Z,81.40
2018-03-16T20:20:25.734Z,81.20
2018-03-16T20:22:53.331Z,81.30
2018-03-16T20:25:20.963Z,81.20
2018-03-16T20:27:48.945Z,81.60
2018-03-16T20:30:16.936Z,81.70
2018-03-16T20:32:44.491Z,81.70
2018-03-16T20:35:12.134Z,82.00
2018-03-16T20:37:40.087Z,82.10
2018-03-16T20:40:08.057Z,82.10
2018-03-16T20:42:35.706Z,82.20
2018-03-16T20:45:03.749Z,82.40
2018-03-16T20:47:31.754Z,82.10
2018-03-16T20:49:59.495Z,82.40
2018-03-16T20:52:27.071Z,82.40
2018-03-16T20:54:54.706Z,82.60
2018-03-16T20:57:22.303Z,82.50
2018-03-16T20:59:49.925Z,82.60
2018-03-16T21:02:17.532Z,82.60
2018-03-16T21:04:45.126Z,83.00
2018-03-16T21:07:12.723Z,83.40
2018-03-16T21:09:40.328Z,83.90
2018-03-16T21:12:08.015Z,84.10
2018-03-16T21:14:35.603Z,84.50
2018-03-16T21:17:03.335Z,84.30
2018-03-16T21:19:31.193Z,84.40
2018-03-16T21:21:59.587Z,84.80
2018-03-16T21:24:27.194Z,85.10
2018-03-16T21:26:54.807Z,85.50
2018-03-16T21:29:22.371Z,85.70
2018-03-16T21:31:49.932Z,85.70
2018-03-16T21:34:17.475Z,85.70
2018-03-16T21:36:45.148Z,85.80
2018-03-16T21:39:12.775Z,86.00
2018-03-16T21:41:40.383Z,85.90
2018-03-16T21:44:08.392Z,86.40
2018-03-16T21:46:36.003Z,86.40
2018-03-16T21:49:03.575Z,86.40
2018-03-16T21:51:31.191Z,86.00
2018-03-16T21:53:58.762Z,86.20
2018-03-16T21:56:26.348Z,85.90
2018-03-16T21:58:54.406Z,85.80
2018-03-16T22:01:22.065Z,85.80
2018-03-16T22:03:49.630Z,85.70
2018-03-16T22:06:17.220Z,85.80
2018-03-16T22:08:44.853Z,86.50
2018-03-16T22:11:12.447Z,86.60
2018-03-16T22:13:40.054Z,86.60
2018-03-16T22:16:07.654Z,86.80
2018-03-16T22:18:35.255Z,86.70
2018-03-16T22:21:02.847Z,86.70
2018-03-16T22:23:30.447Z,86.50
2018-03-16T22:25:58.016Z,86.60
2018-03-16T22:28:25.691Z,86.60
2018-03-16T22:30:53.327Z,86.70
2018-03-16T22:33:20.903Z,86.70
2018-03-16T22:35:48.491Z,86.90
2018-03-16T22:38:16.095Z,86.40
2018-03-16T22:40:44.439Z,86.40
2018-03-16T22:43:12.033Z,86.70
2018-03-16T22:45:39.630Z,87.00
2018-03-16T22:48:07.251Z,86.80
2018-03-16T22:50:34.866Z,86.70
2018-03-16T22:53:02.457Z,86.70
2018-03-16T22:55:30.081Z,86.70
2018-03-16T22:57:57.668Z,87.00
2018-03-16T23:00:25.255Z,87.20
2018-03-16T23:02:52.858Z,87.30
2018-03-16T23:05:20.452Z,87.70
2018-03-16T23:07:48.055Z,87.80
2018-03-16T23:10:15.672Z,87.80
2018-03-16T23:12:43.242Z,87.70
2018-03-16T23:15:10.819Z,87.70
2018-03-16T23:17:38.367Z,87.90
2018-03-16T23:20:05.942Z,87.80
2018-03-16T23:22:33.525Z,88.00
2018-03-16T23:25:01.176Z,88.10
2018-03-16T23:27:28.756Z,88.20
2018-03-16T23:29:56.399Z,88.20
2018-03-16T23:32:23.997Z,88.30
2018-03-16T23:34:51.622Z,88.30
2018-03-16T23:37:19.187Z,88.40
2018-03-16T23:39:46.810Z,88.70
2018-03-16T23:42:14.397Z,88.80
2018-03-16T23:44:42.025Z,88.80
2018-03-16T23:47:09.583Z,88.80
2018-03-16T23:49:37.197Z,88.90
2018-03-16T23:52:04.824Z,88.90
2018-03-16T23:54:32.467Z,88.70
2018-03-16T23:57:00.062Z,88.70
2018-03-16T23:59:27.658Z,88.60
